Bluefield, West Virginia
Current Conditions -  °F | °C
As of 8:52 AM on Friday 19 Dec 2014 (Local Time) from KBLF Reporting Station
Overcast Overcast  
Wind Chill: 19°   Ceiling: 1100
Heat Index: 28°   Visibility: 10mi
Dew Point: 21°   Wind: 9mph
Humidity: 75%   Direction: 280°W
Pressure: 30.14"   Gusts: NA
Location:  37.27°N, 81.22°W
Report Text: KBLF 191352Z AUTO 28008KT 10SM OVC011 M02/M06 A3014 RMK AO2 SLP227 T10221061
Loading
Personal Weather Stations






























Interactive Weather Map New forecast layout! Learn more

10-Day Weather Forecast

Advertisements
Track Severe Weather on mobile